Time;durP1;ratioP1;P1;durP2;ratioP2;P2;SDS_P1;SDS_P2;PMS_P1;PMS_P2;Temp;Humidity;BMP_temperature;BMP_pressure;BME280_temperature;BME280_humidity;BME280_pressure;Samples;Min_cycle;Max_cycle;Signal;HPM_P1;HPM_P2
2021/01/21 00:00:12;;;;;;;20.10;10.93;;;-0.20;99.90;;;;;;20814189;28;20125;-80
2021/01/21 00:10:14;;;;;;;25.63;11.88;;;-0.10;99.90;;;;;;20811726;28;20423;-80
2021/01/21 00:20:16;;;;;;;22.80;13.00;;;0.10;99.90;;;;;;20814847;28;20026;-80
2021/01/21 00:30:18;;;;;;;23.85;13.88;;;-0.10;99.90;;;;;;20819183;28;20029;-80
2021/01/21 00:40:19;;;;;;;34.05;17.40;;;-0.20;99.90;;;;;;20834826;28;20034;-79
2021/01/21 00:50:19;;;;;;;27.98;13.90;;;-0.30;99.90;;;;;;20758834;28;20109;-80
2021/01/21 01:00:21;;;;;;;23.27;12.45;;;-0.10;99.90;;;;;;20825379;28;20056;-79
2021/01/21 01:10:25;;;;;;;16.08;8.75;;;0.10;99.90;;;;;;20828355;28;20054;-79
2021/01/21 01:20:26;;;;;;;12.32;5.50;;;0.50;99.90;;;;;;20809591;28;20048;-78
2021/01/21 01:30:27;;;;;;;27.98;13.90;;;0.80;99.90;;;;;;20809864;28;20038;-80
2021/01/21 01:40:29;;;;;;;29.63;17.17;;;0.00;99.90;;;;;;20736754;28;20054;-78
2021/01/21 01:50:31;;;;;;;30.60;17.08;;;-0.40;99.90;;;;;;20735416;28;20049;-79
2021/01/21 02:00:33;;;;;;;26.65;12.45;;;0.00;99.90;;;;;;20803768;28;20022;-79
2021/01/21 02:10:39;;;;;;;25.00;11.95;;;0.40;99.90;;;;;;20789369;28;20030;-79
2021/01/21 02:21:10;;;;;;;26.52;14.60;;;0.50;99.90;;;;;;20791685;28;20038;-79
2021/01/21 02:31:27;;;;;;;25.73;13.38;;;0.10;99.90;;;;;;20812557;28;20033;-79
2021/01/21 02:41:33;;;;;;;29.15;14.05;;;0.00;99.90;;;;;;20832548;28;20041;-80
2021/01/21 02:51:46;;;;;;;27.50;12.25;;;0.00;99.90;;;;;;20831900;28;20262;-80
2021/01/21 03:01:55;;;;;;;25.00;12.45;;;0.10;99.90;;;;;;20812911;28;20475;-80
2021/01/21 03:12:16;;;;;;;25.25;13.02;;;0.20;99.90;;;;;;20810791;28;20134;-79
2021/01/21 03:22:19;;;;;;;19.13;10.48;;;0.80;99.90;;;;;;20830273;28;20033;-80
2021/01/21 03:32:20;;;;;;;25.42;13.20;;;0.90;99.90;;;;;;20812350;28;20042;-79
2021/01/21 03:42:29;;;;;;;28.45;14.77;;;0.40;99.90;;;;;;20828721;28;20038;-80
2021/01/21 03:52:48;;;;;;;26.33;14.43;;;0.30;99.90;;;;;;20819483;28;20042;-79
2021/01/21 04:02:55;;;;;;;28.65;15.90;;;0.40;99.90;;;;;;20815826;28;20091;-79
2021/01/21 04:13:15;;;;;;;28.55;14.48;;;0.60;99.90;;;;;;20795166;28;20034;-79
2021/01/21 04:23:16;;;;;;;30.60;15.93;;;0.60;99.90;;;;;;20807558;28;20516;-79
2021/01/21 04:33:17;;;;;;;31.73;16.63;;;0.40;99.90;;;;;;20812045;28;20503;-77
2021/01/21 04:43:19;;;;;;;31.65;15.18;;;0.40;99.90;;;;;;20808589;28;20058;-78
2021/01/21 04:53:24;;;;;;;31.48;16.13;;;0.50;99.90;;;;;;20806781;28;20088;-77
2021/01/21 05:03:34;;;;;;;28.50;15.88;;;0.50;99.90;;;;;;20815560;28;20030;-80
2021/01/21 05:13:55;;;;;;;24.48;12.60;;;0.60;99.90;;;;;;20738436;28;20054;-79
2021/01/21 05:24:31;;;;;;;21.42;11.75;;;1.10;99.90;;;;;;20710485;28;20042;-77
2021/01/21 05:34:51;;;;;;;21.10;11.95;;;1.20;99.90;;;;;;20793015;28;20420;-78
2021/01/21 05:45:07;;;;;;;19.08;11.63;;;1.00;99.90;;;;;;20788803;28;20125;-79
2021/01/21 05:55:27;;;;;;;28.60;12.07;;;0.80;99.90;;;;;;20805744;28;20131;-78
2021/01/21 06:05:32;;;;;;;21.38;11.65;;;0.70;99.90;;;;;;20786021;28;20041;-79
2021/01/21 06:15:33;;;;;;;20.23;11.27;;;0.80;99.90;;;;;;20755844;28;20097;-79
2021/01/21 06:25:34;;;;;;;21.83;10.35;;;1.10;99.90;;;;;;20762443;28;20045;-79
2021/01/21 06:35:40;;;;;;;16.27;8.50;;;1.20;99.90;;;;;;20810256;28;20132;-77
2021/01/21 06:45:43;;;;;;;19.08;9.88;;;1.50;99.90;;;;;;20827433;28;20036;-77
2021/01/21 06:55:48;;;;;;;14.55;8.40;;;1.60;99.90;;;;;;20814051;28;20033;-78
2021/01/21 07:06:00;;;;;;;14.25;9.15;;;1.50;99.90;;;;;;20838080;28;20096;-78
2021/01/21 07:16:03;;;;;;;14.95;8.13;;;1.50;99.90;;;;;;20761068;28;20026;-77
2021/01/21 07:26:30;;;;;;;16.15;8.32;;;1.40;99.90;;;;;;20817448;28;20030;-78
2021/01/21 07:36:30;;;;;;;21.65;9.02;;;1.60;99.90;;;;;;20809244;28;20038;-78
2021/01/21 07:46:31;;;;;;;;;;;1.50;99.90;;;;;;20748790;28;20401;-78
2021/01/21 07:56:32;;;;;;;19.88;10.35;;;1.50;99.90;;;;;;20814079;28;19913;-79
2021/01/21 08:06:33;;;;;;;;;;;1.40;99.90;;;;;;20814655;28;20041;-79
2021/01/21 08:16:34;;;;;;;15.30;7.50;;;1.80;99.90;;;;;;20796073;28;20303;-78
2021/01/21 08:26:36;;;;;;;15.32;7.70;;;1.90;99.90;;;;;;20788733;28;20106;-78
2021/01/21 08:36:38;;;;;;;27.10;11.27;;;2.20;99.90;;;;;;20785957;28;20129;-78
2021/01/21 08:46:38;;;;;;;14.60;7.93;;;2.40;99.90;;;;;;20791063;28;20553;-77
2021/01/21 08:56:40;;;;;;;14.73;10.53;;;2.50;99.90;;;;;;20717937;28;20041;-77
2021/01/21 09:06:42;;;;;;;13.48;8.02;;;2.60;99.90;;;;;;20791093;28;20285;-76
2021/01/21 09:16:48;;;;;;;14.52;7.68;;;2.90;99.90;;;;;;20767220;28;20062;-77
2021/01/21 09:27:08;;;;;;;8.93;5.15;;;3.10;99.90;;;;;;20738847;28;20041;-77
2021/01/21 09:37:09;;;;;;;14.48;6.80;;;3.10;99.90;;;;;;20787117;28;20056;-77
2021/01/21 09:47:10;;;;;;;13.50;7.53;;;3.30;99.90;;;;;;20763705;28;20025;-78
2021/01/21 09:57:11;;;;;;;12.80;8.03;;;3.70;99.90;;;;;;20717061;28;20030;-79
2021/01/21 10:07:12;;;;;;;;;;;4.10;99.90;;;;;;20750148;28;20033;-79
2021/01/21 10:17:13;;;;;;;15.93;8.82;;;4.30;99.90;;;;;;20743822;28;19924;-79
2021/01/21 10:27:14;;;;;;;12.07;7.30;;;3.90;99.90;;;;;;20734129;28;20029;-78
2021/01/21 10:37:15;;;;;;;10.33;6.07;;;4.00;99.90;;;;;;20783903;28;20403;-77
2021/01/21 10:47:15;;;;;;;7.67;3.37;;;3.90;99.90;;;;;;20784776;28;20112;-77
2021/01/21 10:57:17;;;;;;;10.27;5.70;;;4.50;99.90;;;;;;20789114;28;20068;-78
2021/01/21 11:07:18;;;;;;;5.53;3.08;;;5.20;99.90;;;;;;20798034;28;20496;-78
2021/01/21 11:17:19;;;;;;;8.73;3.87;;;5.80;99.90;;;;;;20798035;28;20072;-78
2021/01/21 11:27:20;;;;;;;6.27;3.40;;;7.00;99.90;;;;;;20781885;28;20049;-79
2021/01/21 11:37:21;;;;;;;3.80;2.33;;;8.00;99.90;;;;;;20807101;28;20751;-77
2021/01/21 11:47:22;;;;;;;5.27;2.43;;;8.20;99.90;;;;;;20776152;28;20040;-78
2021/01/21 11:57:28;;;;;;;16.40;9.67;;;7.20;99.90;;;;;;20795474;28;20041;-79
2021/01/21 12:07:32;;;;;;;13.18;6.45;;;5.00;99.90;;;;;;20795252;28;20034;-78
2021/01/21 12:17:33;;;;;;;10.15;5.50;;;4.90;99.90;;;;;;20798533;28;20034;-77
2021/01/21 12:27:34;;;;;;;6.30;4.13;;;5.10;99.90;;;;;;20745438;28;20026;-79
2021/01/21 12:37:35;;;;;;;6.63;3.80;;;5.80;99.90;;;;;;20813330;28;20102;-77
2021/01/21 12:47:36;;;;;;;;;;;5.80;99.90;;;;;;20737913;28;20034;-78
2021/01/21 12:57:39;;;;;;;7.85;3.35;;;5.90;99.90;;;;;;20792962;28;20394;-78
2021/01/21 13:07:40;;;;;;;7.38;3.40;;;6.30;99.90;;;;;;20808441;28;20041;-79
2021/01/21 13:17:40;;;;;;;5.13;3.00;;;5.60;99.90;;;;;;20742145;28;20116;-79
2021/01/21 13:27:41;;;;;;;10.63;2.90;;;6.20;99.90;;;;;;20741614;28;20082;-79
2021/01/21 13:37:42;;;;;;;7.50;3.60;;;5.80;99.90;;;;;;20802337;28;20082;-79
2021/01/21 13:47:43;;;;;;;7.07;3.07;;;6.10;99.90;;;;;;20827197;28;20199;-79
2021/01/21 13:57:45;;;;;;;30.08;9.27;;;6.00;99.90;;;;;;20805900;28;20034;-78
2021/01/21 14:07:46;;;;;;;14.70;5.28;;;5.40;99.90;;;;;;20802903;28;20040;-78
2021/01/21 14:17:47;;;;;;;5.00;2.57;;;6.00;99.90;;;;;;20785831;28;20484;-77
2021/01/21 14:27:48;;;;;;;4.90;3.00;;;5.30;99.90;;;;;;20802370;28;20077;-77
2021/01/21 14:37:49;;;;;;;5.60;3.67;;;5.90;99.90;;;;;;20745269;28;20116;-78
2021/01/21 14:47:50;;;;;;;7.03;2.43;;;5.40;99.90;;;;;;20745275;28;20026;-76
2021/01/21 14:57:51;;;;;;;4.40;2.37;;;5.20;99.90;;;;;;20744462;28;20030;-77
2021/01/21 15:07:54;;;;;;;4.90;2.22;;;5.40;99.90;;;;;;20795172;28;20138;-76
2021/01/21 15:17:55;;;;;;;3.97;1.88;;;5.20;99.90;;;;;;20811943;28;20569;-77
2021/01/21 15:27:56;;;;;;;5.90;2.60;;;5.10;99.90;;;;;;20814568;28;20484;-78
2021/01/21 15:37:57;;;;;;;6.65;2.65;;;4.80;99.90;;;;;;20804407;28;20038;-78
2021/01/21 15:47:58;;;;;;;4.57;2.30;;;4.70;99.90;;;;;;20819967;28;20032;-79
2021/01/21 15:57:59;;;;;;;4.53;2.37;;;4.90;99.90;;;;;;20819547;28;20104;-78
2021/01/21 16:08:00;;;;;;;3.67;2.00;;;4.70;99.90;;;;;;20824167;28;20060;-77
2021/01/21 16:18:01;;;;;;;4.77;2.50;;;4.70;99.90;;;;;;20753037;28;20670;-78
2021/01/21 16:28:02;;;;;;;5.83;3.50;;;4.70;99.90;;;;;;20804303;28;20400;-78
2021/01/21 16:38:03;;;;;;;5.57;3.40;;;4.70;99.90;;;;;;20757862;28;20458;-78
2021/01/21 16:48:04;;;;;;;8.97;4.30;;;4.40;99.90;;;;;;20765494;28;20319;-78
2021/01/21 16:58:06;;;;;;;12.65;5.55;;;4.80;99.90;;;;;;20759402;28;20101;-78
2021/01/21 17:08:07;;;;;;;5.95;3.60;;;4.60;99.90;;;;;;20824240;28;20045;-79
2021/01/21 17:18:08;;;;;;;8.17;4.37;;;4.90;99.90;;;;;;20822314;28;20034;-78
2021/01/21 17:28:08;;;;;;;9.27;4.77;;;4.90;99.90;;;;;;20750757;28;20034;-78
2021/01/21 17:38:09;;;;;;;4.07;2.90;;;5.00;99.90;;;;;;20807405;28;20562;-78
2021/01/21 17:48:10;;;;;;;4.23;2.60;;;5.10;99.90;;;;;;20799643;28;20030;-77
2021/01/21 17:58:11;;;;;;;9.00;3.10;;;4.80;99.90;;;;;;20795079;28;20038;-76
2021/01/21 18:08:12;;;;;;;6.33;2.73;;;4.90;99.90;;;;;;20815355;28;20049;-77
2021/01/21 18:18:16;;;;;;;7.70;2.73;;;4.90;99.90;;;;;;20797663;28;20037;-77
2021/01/21 18:28:17;;;;;;;5.53;3.55;;;4.80;99.90;;;;;;20783835;28;20481;-77
2021/01/21 18:38:18;;;;;;;5.63;2.70;;;4.80;99.90;;;;;;20740689;28;20083;-78
2021/01/21 18:48:20;;;;;;;10.47;4.33;;;4.90;99.90;;;;;;20747447;28;20029;-78
2021/01/21 18:58:20;;;;;;;3.10;1.92;;;5.00;99.90;;;;;;20800109;28;20038;-79
2021/01/21 19:08:21;;;;;;;6.10;2.20;;;4.60;99.90;;;;;;20816615;28;20065;-79
2021/01/21 19:18:22;;;;;;;17.23;6.03;;;4.60;99.90;;;;;;20801095;28;20049;-78
2021/01/21 19:28:24;;;;;;;30.15;11.07;;;4.70;99.90;;;;;;20810089;28;20049;-78
2021/01/21 19:38:25;;;;;;;16.67;7.63;;;4.20;99.90;;;;;;20826150;28;20101;-78
2021/01/21 19:48:27;;;;;;;19.50;7.90;;;4.00;99.90;;;;;;20829951;28;20087;-78
2021/01/21 19:58:28;;;;;;;10.18;4.88;;;3.30;99.90;;;;;;20818463;28;20041;-78
2021/01/21 20:08:29;;;;;;;5.40;3.60;;;3.70;99.90;;;;;;20751854;28;20032;-78
2021/01/21 20:18:30;;;;;;;7.13;3.03;;;4.10;99.90;;;;;;20844138;28;20040;-75
2021/01/21 20:28:30;;;;;;;7.30;2.43;;;4.40;99.90;;;;;;20793850;28;20511;-76
2021/01/21 20:38:31;;;;;;;19.10;9.27;;;4.60;99.90;;;;;;20791887;28;20511;-76
2021/01/21 20:48:32;;;;;;;26.23;14.23;;;4.20;99.90;;;;;;20789489;28;20116;-77
2021/01/21 20:58:33;;;;;;;22.73;9.80;;;4.20;99.90;;;;;;20736790;28;20065;-76
2021/01/21 21:08:34;;;;;;;10.90;4.60;;;4.00;99.90;;;;;;20803779;28;20053;-76
2021/01/21 21:18:35;;;;;;;6.17;3.00;;;3.70;99.90;;;;;;20786076;28;20408;-76
2021/01/21 21:28:36;;;;;;;6.60;4.20;;;3.80;99.90;;;;;;20734940;28;20026;-76
2021/01/21 21:38:36;;;;;;;5.40;3.67;;;3.90;99.90;;;;;;20801900;28;20328;-76
2021/01/21 21:48:37;;;;;;;4.03;2.70;;;4.10;99.90;;;;;;20805100;28;20134;-76
2021/01/21 21:58:38;;;;;;;7.03;3.60;;;4.50;99.90;;;;;;20732357;28;20436;-78
2021/01/21 22:08:39;;;;;;;6.37;3.73;;;4.70;99.90;;;;;;20807096;28;20065;-77
2021/01/21 22:18:40;;;;;;;9.37;3.97;;;4.60;99.90;;;;;;20811797;28;20030;-78
2021/01/21 22:28:41;;;;;;;9.40;5.13;;;4.60;99.90;;;;;;20822563;28;20049;-77
2021/01/21 22:38:42;;;;;;;11.67;4.87;;;4.20;99.90;;;;;;20730597;28;20042;-78
2021/01/21 22:48:47;;;;;;;8.30;3.90;;;4.30;99.90;;;;;;20812834;28;20030;-78
2021/01/21 22:58:48;;;;;;;10.15;5.78;;;4.50;99.90;;;;;;20808605;28;20045;-77
2021/01/21 23:08:49;;;;;;;;;;;4.40;99.90;;;;;;20803230;28;20070;-77
2021/01/21 23:18:50;;;;;;;9.57;5.05;;;3.50;99.90;;;;;;20821876;28;19913;-78
2021/01/21 23:28:51;;;;;;;7.40;3.42;;;3.30;99.90;;;;;;20823688;28;20038;-79
2021/01/21 23:38:51;;;;;;;7.27;3.97;;;4.00;99.90;;;;;;20807599;28;20099;-77
2021/01/21 23:48:52;;;;;;;7.27;3.63;;;3.80;99.90;;;;;;20825675;28;20033;-79
2021/01/21 23:58:53;;;;;;;5.73;3.83;;;3.90;99.90;;;;;;20753226;28;20052;-78
